首页
METAR-TAF:

METAR-TAF

机场 :

Hanover County Municipal Airport

里士满 / Ashland, 弗吉尼亚州, 美国

纬度: 37-42-29N, 经度: 077-26-04W, 海拔: 62米

当前天气观测

该预报发布于1小时和4分钟前的14:54 UTC
风速3节,风向
温度 4°C
湿度 60%
气压 1034 hPa
能見度: 16.1公里
天空无云

METAR: KOFP 081454Z AUTO 09003KT 10SM CLR 04/M03 A3052 RMK AO2 SLP338 T00391033 53001

时间: 10:58 (15:58 UTC)


TAF: 丢失

超过4000个机场的气象观测和天气预报(METAR&TAF报告)。

可查询的气象台以黄色和红色小点在地图上表示。

将鼠标移到小点上方,可查看气象台名称。

然后点击查看天气观测和预报。

如需切换地图:点击带黑十字的绿色按钮放大地图;点击带横线的绿色按钮缩小地图;或者点击绿色箭头查看邻近地区的地图。


METAR-TAF: